createdAt,value
2022-10-25T00:02:30.539Z,11.33
2022-10-25T00:03:52.012Z,10.97
2022-10-25T00:05:14.089Z,10.91
2022-10-25T00:06:35.610Z,10.89
2022-10-25T00:07:57.030Z,10.58
2022-10-25T00:09:18.045Z,10.97
2022-10-25T00:10:39.636Z,11.56
2022-10-25T00:12:00.939Z,11.77
2022-10-25T00:13:22.609Z,11.27
2022-10-25T00:14:44.109Z,11.75
2022-10-25T00:16:05.620Z,11.46
2022-10-25T00:17:27.072Z,11.14
2022-10-25T00:18:48.504Z,11.05
2022-10-25T00:20:11.184Z,10.72
2022-10-25T00:21:32.525Z,10.29
2022-10-25T00:22:54.290Z,10.48
2022-10-25T00:24:15.807Z,10.09
2022-10-25T00:25:37.453Z,11.17
2022-10-25T00:26:59.040Z,11.03
2022-10-25T00:28:20.388Z,11.13
2022-10-25T00:29:41.379Z,10.66
2022-10-25T00:31:04.627Z,10.52
2022-10-25T00:32:26.046Z,10.13
2022-10-25T00:33:47.175Z,11.13
2022-10-25T00:35:08.903Z,10.59
2022-10-25T00:36:30.155Z,10.92
2022-10-25T00:37:51.569Z,10.86
2022-10-25T00:39:12.779Z,11.00
2022-10-25T00:40:34.099Z,11.06
2022-10-25T00:41:55.565Z,11.23
2022-10-25T00:43:38.102Z,11.43
2022-10-25T00:45:02.973Z,10.93
2022-10-25T00:46:28.941Z,10.78
2022-10-25T00:47:59.086Z,10.89
2022-10-25T00:49:20.407Z,10.61
2022-10-25T00:50:48.890Z,11.51
2022-10-25T00:52:10.177Z,11.39
2022-10-25T00:53:33.578Z,11.65
2022-10-25T00:54:54.622Z,10.65
2022-10-25T00:56:18.622Z,11.56
2022-10-25T00:59:00.391Z,10.89
2022-10-25T01:00:22.073Z,11.29
2022-10-25T01:01:43.138Z,10.94
2022-10-25T01:03:04.709Z,10.79
2022-10-25T01:04:28.216Z,10.61
2022-10-25T01:05:49.310Z,11.18
2022-10-25T01:07:10.603Z,10.87
2022-10-25T01:08:31.981Z,11.36
2022-10-25T01:09:53.013Z,11.69
2022-10-25T01:11:14.390Z,11.43
2022-10-25T01:12:35.644Z,12.84
2022-10-25T01:13:56.706Z,13.04
2022-10-25T01:15:17.930Z,11.45
2022-10-25T01:16:52.239Z,11.74
2022-10-25T01:18:19.526Z,11.39
2022-10-25T01:20:13.197Z,11.38
2022-10-25T01:21:46.724Z,10.82
2022-10-25T01:23:27.169Z,12.02
2022-10-25T01:25:04.486Z,14.46
2022-10-25T01:26:51.790Z,12.89
2022-10-25T01:28:39.142Z,11.98
2022-10-25T01:30:07.046Z,14.13
2022-10-25T01:31:40.511Z,12.67
2022-10-25T01:33:22.152Z,12.48
2022-10-25T01:35:05.100Z,12.09
2022-10-25T01:36:41.660Z,13.86
2022-10-25T01:38:06.513Z,13.17
2022-10-25T01:39:36.273Z,11.98
2022-10-25T01:41:13.280Z,11.76
2022-10-25T01:44:05.636Z,8.17
2022-10-25T01:45:28.125Z,11.03
2022-10-25T01:48:11.217Z,10.87
2022-10-25T01:49:36.054Z,10.22
2022-10-25T01:51:00.789Z,10.53
2022-10-25T01:52:22.866Z,10.68
2022-10-25T01:53:46.713Z,10.93
2022-10-25T01:55:10.372Z,10.96
2022-10-25T01:56:35.054Z,10.91
2022-10-25T01:58:05.832Z,11.09
2022-10-25T01:59:42.288Z,10.83
2022-10-25T02:01:13.034Z,10.96
2022-10-25T02:04:02.128Z,10.71
2022-10-25T02:05:29.377Z,10.16
2022-10-25T02:07:08.284Z,10.71
2022-10-25T02:09:54.177Z,11.01
2022-10-25T02:11:25.794Z,10.51
2022-10-25T02:12:53.930Z,10.17
2022-10-25T02:14:33.968Z,10.19
2022-10-25T02:16:07.140Z,10.04
2022-10-25T02:17:28.259Z,10.90
2022-10-25T02:18:50.973Z,10.79
2022-10-25T02:20:13.202Z,10.64
2022-10-25T02:21:35.153Z,8.69
2022-10-25T02:22:56.531Z,10.17
2022-10-25T02:24:20.797Z,10.64
2022-10-25T02:25:42.151Z,9.81
2022-10-25T02:27:04.258Z,9.95
2022-10-25T02:28:26.163Z,11.17
2022-10-25T02:29:47.515Z,11.27
2022-10-25T02:31:11.050Z,10.44
2022-10-25T02:32:32.281Z,11.53
2022-10-25T02:33:53.310Z,10.85
2022-10-25T02:35:14.678Z,11.19
2022-10-25T02:36:35.742Z,10.78
2022-10-25T02:37:57.072Z,10.75
2022-10-25T02:39:19.667Z,10.79
2022-10-25T02:40:40.957Z,10.49
2022-10-25T02:42:02.348Z,10.91
2022-10-25T02:43:23.909Z,11.46
2022-10-25T02:44:45.311Z,10.79
2022-10-25T02:46:07.571Z,11.18
2022-10-25T02:47:28.899Z,10.77
2022-10-25T02:48:50.393Z,11.01
2022-10-25T02:51:34.295Z,9.66
2022-10-25T02:52:55.702Z,11.16
2022-10-25T02:54:16.752Z,10.78
2022-10-25T02:55:38.282Z,11.79
2022-10-25T02:56:59.334Z,11.21
2022-10-25T02:58:20.456Z,10.91
2022-10-25T02:59:41.738Z,11.41
2022-10-25T03:01:03.403Z,11.36
2022-10-25T03:02:25.053Z,12.22
2022-10-25T03:03:46.093Z,11.64
2022-10-25T03:05:07.832Z,11.09
2022-10-25T03:06:29.139Z,11.88
2022-10-25T03:07:50.518Z,11.18
2022-10-25T03:09:12.139Z,11.07
2022-10-25T03:10:36.232Z,10.66
2022-10-25T03:11:57.296Z,11.33
2022-10-25T03:13:18.644Z,12.14
2022-10-25T03:14:40.239Z,11.43
2022-10-25T03:16:02.081Z,12.16
2022-10-25T03:17:23.145Z,11.50
2022-10-25T03:18:44.719Z,11.50
2022-10-25T03:20:07.341Z,11.86
2022-10-25T03:21:28.773Z,11.66
2022-10-25T03:22:49.832Z,12.00
2022-10-25T03:24:10.866Z,11.98
2022-10-25T03:25:32.405Z,11.07
2022-10-25T03:26:53.546Z,11.56
2022-10-25T03:28:15.033Z,11.33
2022-10-25T03:29:36.090Z,11.49
2022-10-25T03:30:57.465Z,12.13
2022-10-25T03:32:18.597Z,12.43
2022-10-25T03:33:40.453Z,12.86
2022-10-25T03:35:01.871Z,11.98
2022-10-25T03:36:22.982Z,12.44
2022-10-25T03:37:44.187Z,11.94
2022-10-25T03:39:05.694Z,12.52
2022-10-25T03:40:27.394Z,12.44
2022-10-25T03:41:48.674Z,13.64
2022-10-25T03:43:10.300Z,13.31
2022-10-25T03:44:31.499Z,13.22
2022-10-25T03:45:52.885Z,12.25
2022-10-25T03:47:14.311Z,12.22
2022-10-25T03:48:35.859Z,12.17
2022-10-25T03:49:56.935Z,11.91
2022-10-25T03:51:18.018Z,12.53
2022-10-25T03:52:39.700Z,12.58
2022-10-25T03:54:01.062Z,12.60
2022-10-25T03:55:22.215Z,13.38
2022-10-25T03:56:43.802Z,12.75
2022-10-25T03:58:05.139Z,14.54
2022-10-25T03:59:26.374Z,14.51
2022-10-25T04:00:47.964Z,14.24
2022-10-25T04:02:10.479Z,13.39
2022-10-25T04:03:31.858Z,13.36
2022-10-25T04:04:53.100Z,13.92
2022-10-25T04:06:14.785Z,13.05
2022-10-25T04:07:36.013Z,13.41
2022-10-25T04:08:57.000Z,13.34
2022-10-25T04:10:18.331Z,13.56
2022-10-25T04:11:39.407Z,13.38
2022-10-25T04:13:00.432Z,14.03
2022-10-25T04:14:21.516Z,15.19
2022-10-25T04:15:42.993Z,16.32
2022-10-25T04:17:04.087Z,15.50
2022-10-25T04:18:25.358Z,13.28
2022-10-25T04:19:46.305Z,12.44
2022-10-25T04:21:07.911Z,12.34
2022-10-25T04:22:29.459Z,12.38
2022-10-25T04:23:50.673Z,12.24
2022-10-25T04:25:11.586Z,12.82
2022-10-25T04:26:34.813Z,13.82
2022-10-25T04:27:57.160Z,12.76
2022-10-25T04:29:18.182Z,13.41
2022-10-25T04:30:39.330Z,14.78
2022-10-25T04:32:00.332Z,14.17
2022-10-25T04:33:21.389Z,15.08
2022-10-25T04:34:42.884Z,17.05
2022-10-25T04:36:04.417Z,15.27
2022-10-25T04:37:25.776Z,15.88
2022-10-25T04:38:50.463Z,15.79
2022-10-25T04:40:12.230Z,15.66
2022-10-25T04:41:33.226Z,14.20
2022-10-25T04:42:54.270Z,14.22
2022-10-25T04:44:15.750Z,14.04
2022-10-25T04:45:37.088Z,15.49
2022-10-25T04:46:58.002Z,15.84
2022-10-25T04:48:19.074Z,14.74
2022-10-25T04:49:40.406Z,14.32
2022-10-25T04:51:01.542Z,17.23
2022-10-25T04:53:34.285Z,17.31
2022-10-25T04:54:56.062Z,16.03
2022-10-25T04:56:17.741Z,17.57
2022-10-25T04:57:40.112Z,17.38
2022-10-25T04:59:01.499Z,20.23
2022-10-25T05:00:24.138Z,18.04
2022-10-25T05:01:45.758Z,17.08
2022-10-25T05:03:10.886Z,14.88
2022-10-25T05:04:29.965Z,14.84
2022-10-25T05:05:51.470Z,13.83
2022-10-25T05:07:12.806Z,13.89
2022-10-25T05:08:36.961Z,13.43
2022-10-25T05:09:58.141Z,13.14
2022-10-25T05:12:33.142Z,10.27
2022-10-25T05:13:54.853Z,13.37
2022-10-25T05:15:16.551Z,13.83
2022-10-25T05:16:37.925Z,15.56
2022-10-25T05:17:59.420Z,14.34
2022-10-25T05:19:20.774Z,14.21
2022-10-25T05:20:42.438Z,13.90
2022-10-25T05:22:04.028Z,14.43
2022-10-25T05:23:25.525Z,14.27
2022-10-25T05:24:46.536Z,14.40
2022-10-25T05:26:13.934Z,14.04
2022-10-25T05:27:38.622Z,14.13
2022-10-25T05:29:00.268Z,13.01
2022-10-25T05:30:22.053Z,12.76
2022-10-25T05:31:43.582Z,14.17
2022-10-25T05:33:05.159Z,13.64
2022-10-25T05:34:26.511Z,15.06
2022-10-25T05:35:47.690Z,15.06
2022-10-25T05:37:09.251Z,15.86
2022-10-25T05:38:36.993Z,14.84
2022-10-25T05:39:57.222Z,14.82
2022-10-25T05:41:18.751Z,14.68
2022-10-25T05:42:40.194Z,14.31
2022-10-25T05:44:01.528Z,13.96
2022-10-25T05:45:23.059Z,14.07
2022-10-25T05:46:44.269Z,13.47
2022-10-25T05:48:05.545Z,13.66
2022-10-25T05:49:27.094Z,12.57
2022-10-25T05:50:48.151Z,12.14
2022-10-25T05:52:09.210Z,12.67
2022-10-25T05:53:30.787Z,12.89
2022-10-25T05:54:52.587Z,12.70
2022-10-25T05:56:14.564Z,12.91
2022-10-25T05:57:35.701Z,12.94
2022-10-25T05:58:57.309Z,12.91
2022-10-25T06:00:19.277Z,13.74
2022-10-25T06:01:42.531Z,13.01
2022-10-25T06:03:04.001Z,17.25
2022-10-25T06:04:27.317Z,14.57
2022-10-25T06:05:48.730Z,13.21
2022-10-25T06:07:11.107Z,13.88
2022-10-25T06:08:32.569Z,19.77
2022-10-25T06:09:54.019Z,15.07
2022-10-25T06:11:19.690Z,14.61
2022-10-25T06:12:40.798Z,13.38
2022-10-25T06:14:02.876Z,13.36
2022-10-25T06:15:24.401Z,13.12
2022-10-25T06:16:45.821Z,12.86
2022-10-25T06:18:07.025Z,13.35
2022-10-25T06:19:28.566Z,12.97
2022-10-25T06:20:50.070Z,13.08
2022-10-25T06:22:12.645Z,12.23
2022-10-25T06:23:35.707Z,12.88
2022-10-25T06:24:57.492Z,13.63
2022-10-25T06:26:22.681Z,13.08
2022-10-25T06:27:43.991Z,13.64
2022-10-25T06:29:05.305Z,14.53
2022-10-25T06:30:28.078Z,15.04
2022-10-25T06:31:50.341Z,15.29
2022-10-25T06:33:11.913Z,13.34
2022-10-25T06:34:33.748Z,13.87
2022-10-25T06:37:07.394Z,15.48
2022-10-25T06:38:30.992Z,14.62
2022-10-25T06:39:52.299Z,15.67
2022-10-25T06:42:29.274Z,15.78
2022-10-25T06:43:50.617Z,16.42
2022-10-25T06:45:12.078Z,15.82
2022-10-25T06:46:40.551Z,15.48
2022-10-25T06:47:57.952Z,14.10
2022-10-25T06:49:19.563Z,14.00
2022-10-25T06:50:41.159Z,18.32
2022-10-25T06:52:02.429Z,16.96
2022-10-25T06:53:23.510Z,24.24
2022-10-25T06:54:44.872Z,19.63
2022-10-25T06:56:14.149Z,15.82
2022-10-25T06:58:44.369Z,15.27
2022-10-25T07:00:07.449Z,21.58
2022-10-25T07:02:40.231Z,26.38
2022-10-25T07:04:02.351Z,28.94
2022-10-25T07:05:23.623Z,30.98
2022-10-25T07:06:46.414Z,27.03
2022-10-25T07:08:08.761Z,23.34
2022-10-25T07:09:30.424Z,20.92
2022-10-25T07:12:12.621Z,19.05
2022-10-25T07:13:33.399Z,18.45
2022-10-25T07:14:54.752Z,16.15
2022-10-25T07:16:17.928Z,15.88
2022-10-25T07:17:39.209Z,11.86
2022-10-25T07:19:01.687Z,14.73
2022-10-25T07:20:22.987Z,15.67
2022-10-25T07:21:44.381Z,16.52
2022-10-25T07:23:08.746Z,16.71
2022-10-25T07:24:28.819Z,16.98
2022-10-25T07:25:50.124Z,18.00
2022-10-25T07:27:11.380Z,17.47
2022-10-25T07:28:33.634Z,16.89
2022-10-25T07:29:54.998Z,17.14
2022-10-25T07:31:23.609Z,17.29
2022-10-25T07:32:45.221Z,18.20
2022-10-25T07:34:07.641Z,17.36
2022-10-25T07:35:28.985Z,18.31
2022-10-25T07:36:50.714Z,18.54
2022-10-25T07:38:12.629Z,19.09
2022-10-25T07:39:36.609Z,18.00
2022-10-25T07:40:58.550Z,19.30
2022-10-25T07:42:19.752Z,21.00
2022-10-25T07:43:41.317Z,18.93
2022-10-25T07:45:05.257Z,18.75
2022-10-25T07:46:26.780Z,20.59
2022-10-25T07:47:50.943Z,19.29
2022-10-25T07:49:12.473Z,19.25
2022-10-25T07:50:34.010Z,17.25
2022-10-25T07:53:06.069Z,13.63
2022-10-25T07:54:27.863Z,16.12
2022-10-25T07:57:05.779Z,18.57
2022-10-25T07:58:27.058Z,17.98
2022-10-25T07:59:48.682Z,17.06
2022-10-25T08:01:10.310Z,18.83
2022-10-25T08:02:31.407Z,17.81
2022-10-25T08:03:53.256Z,14.19
2022-10-25T08:05:14.976Z,15.05
2022-10-25T08:06:37.906Z,13.51
2022-10-25T08:07:59.025Z,14.18
2022-10-25T08:09:37.306Z,13.36
2022-10-25T08:10:44.246Z,13.04
2022-10-25T08:12:06.168Z,13.59
2022-10-25T08:13:28.751Z,13.28
2022-10-25T08:14:49.956Z,12.96
2022-10-25T08:16:11.787Z,12.52
2022-10-25T08:17:35.140Z,12.76
2022-10-25T08:18:56.259Z,12.66
2022-10-25T08:20:18.111Z,13.24
2022-10-25T08:21:41.686Z,12.78
2022-10-25T08:23:03.075Z,12.36
2022-10-25T08:24:25.197Z,12.30
2022-10-25T08:25:46.569Z,12.59
2022-10-25T08:27:07.691Z,13.75
2022-10-25T08:28:29.313Z,13.15
2022-10-25T08:29:50.665Z,12.26
2022-10-25T08:31:12.258Z,13.00
2022-10-25T08:32:38.251Z,12.39
2022-10-25T08:34:00.790Z,12.82
2022-10-25T08:35:22.095Z,12.59
2022-10-25T08:36:43.679Z,13.77
2022-10-25T08:38:05.293Z,12.98
2022-10-25T08:39:26.435Z,14.06
2022-10-25T08:40:57.982Z,14.41
2022-10-25T08:44:08.401Z,13.28
2022-10-25T08:45:35.936Z,13.08
2022-10-25T08:48:32.411Z,12.77
2022-10-25T08:50:18.967Z,12.32
2022-10-25T08:51:41.566Z,11.89
2022-10-25T08:53:03.907Z,11.96
2022-10-25T08:56:11.519Z,12.01
2022-10-25T08:57:24.182Z,11.71
2022-10-25T08:58:54.012Z,11.58
2022-10-25T09:00:17.571Z,11.97
2022-10-25T09:01:48.457Z,12.76
2022-10-25T09:03:15.475Z,13.60
2022-10-25T09:04:37.144Z,13.44
2022-10-25T09:06:33.937Z,11.02
2022-10-25T09:08:06.015Z,12.01
2022-10-25T09:09:36.315Z,10.29
2022-10-25T09:11:07.689Z,9.21
2022-10-25T09:12:35.334Z,10.62
2022-10-25T09:14:03.731Z,10.99
2022-10-25T09:15:37.894Z,9.41
2022-10-25T09:17:05.351Z,9.89
2022-10-25T09:18:37.674Z,9.67
2022-10-25T09:20:07.416Z,10.16
2022-10-25T09:21:42.969Z,10.32
2022-10-25T09:23:10.984Z,10.54
2022-10-25T09:24:57.694Z,10.24
2022-10-25T09:26:39.166Z,10.39
2022-10-25T09:28:03.341Z,10.40
2022-10-25T09:29:34.447Z,10.11
2022-10-25T09:30:56.511Z,8.81
2022-10-25T09:33:45.044Z,9.23
2022-10-25T09:35:14.338Z,9.13
2022-10-25T09:38:03.891Z,8.40
2022-10-25T09:39:31.931Z,8.52
2022-10-25T09:41:05.273Z,8.49
2022-10-25T09:43:41.256Z,11.01
2022-10-25T09:45:17.802Z,10.47
2022-10-25T09:47:03.765Z,9.19
2022-10-25T09:48:45.546Z,8.99
2022-10-25T09:50:13.233Z,8.11
2022-10-25T09:51:44.364Z,8.51
2022-10-25T09:53:12.647Z,10.13
2022-10-25T09:54:40.458Z,8.76
2022-10-25T09:56:02.912Z,9.01
2022-10-25T09:57:25.855Z,18.07
2022-10-25T09:58:47.608Z,8.11
2022-10-25T10:01:44.719Z,5.81
2022-10-25T10:03:09.448Z,8.13
2022-10-25T10:04:37.528Z,10.01
2022-10-25T10:06:01.257Z,6.99
2022-10-25T10:08:41.463Z,7.16
2022-10-25T10:11:25.996Z,7.29
2022-10-25T10:14:44.387Z,8.63
2022-10-25T10:16:21.255Z,9.28
2022-10-25T10:17:43.215Z,9.38
2022-10-25T10:19:15.156Z,8.61
2022-10-25T10:20:36.344Z,7.55
2022-10-25T10:22:07.380Z,8.73
2022-10-25T10:24:48.372Z,6.91
2022-10-25T10:26:31.243Z,6.91
2022-10-25T10:30:29.087Z,7.24
2022-10-25T10:33:13.148Z,6.54
2022-10-25T10:34:42.531Z,6.78
2022-10-25T10:36:24.095Z,7.78
2022-10-25T10:37:45.725Z,7.00
2022-10-25T10:39:31.758Z,6.93
2022-10-25T10:40:56.570Z,6.62
2022-10-25T10:42:20.721Z,6.14
2022-10-25T10:43:41.771Z,6.88
2022-10-25T10:45:09.790Z,6.69
2022-10-25T10:46:31.225Z,6.31
2022-10-25T10:47:55.227Z,7.34
2022-10-25T10:49:17.886Z,6.43
2022-10-25T10:50:41.620Z,6.94
2022-10-25T10:52:04.362Z,5.96
2022-10-25T10:53:27.752Z,6.21
2022-10-25T10:54:49.175Z,6.38
2022-10-25T10:56:11.717Z,6.22
2022-10-25T10:57:33.576Z,5.92
2022-10-25T10:58:54.831Z,5.86
2022-10-25T11:00:26.957Z,6.19
2022-10-25T11:01:48.317Z,6.43
2022-10-25T11:03:31.562Z,5.98
2022-10-25T11:04:54.140Z,5.23
2022-10-25T11:06:28.689Z,5.53
2022-10-25T11:07:59.914Z,5.19
2022-10-25T11:09:24.526Z,6.01
2022-10-25T11:10:46.160Z,5.20
2022-10-25T11:12:12.540Z,5.07
2022-10-25T11:13:34.300Z,5.02
2022-10-25T11:14:55.545Z,4.63
2022-10-25T11:17:54.338Z,3.87
2022-10-25T11:19:25.460Z,5.02
2022-10-25T11:20:55.399Z,4.49
2022-10-25T11:22:39.891Z,4.54
2022-10-25T11:24:08.020Z,4.58
2022-10-25T11:25:59.963Z,5.12
2022-10-25T11:27:37.465Z,4.70
2022-10-25T11:29:11.502Z,3.97
2022-10-25T11:32:04.222Z,4.24
2022-10-25T11:33:35.586Z,4.52
2022-10-25T11:35:19.715Z,4.40
2022-10-25T11:36:51.193Z,6.02
2022-10-25T11:38:25.240Z,5.51
2022-10-25T11:41:33.942Z,5.84
2022-10-25T11:45:03.760Z,4.76
2022-10-25T11:47:00.369Z,5.69
2022-10-25T11:48:51.043Z,5.20
2022-10-25T11:50:32.682Z,5.11
2022-10-25T11:52:17.452Z,4.97
2022-10-25T11:53:45.481Z,4.90
2022-10-25T11:55:25.426Z,7.22
2022-10-25T11:58:19.991Z,3.61
2022-10-25T12:01:46.549Z,4.86
2022-10-25T12:03:28.144Z,4.60
2022-10-25T12:04:59.108Z,4.74
2022-10-25T12:06:24.258Z,4.88
2022-10-25T12:08:11.564Z,5.20
2022-10-25T12:09:42.615Z,5.24
2022-10-25T12:12:25.041Z,4.92
2022-10-25T12:13:51.343Z,5.25
2022-10-25T12:15:22.819Z,5.06
2022-10-25T12:16:43.943Z,5.19
2022-10-25T12:18:05.742Z,5.32
2022-10-25T12:19:28.117Z,5.32
2022-10-25T12:20:49.607Z,5.89
2022-10-25T12:23:43.715Z,5.22
2022-10-25T12:25:07.793Z,5.70
2022-10-25T12:26:31.184Z,5.21
2022-10-25T12:29:17.190Z,6.08
2022-10-25T12:30:39.687Z,5.08
2022-10-25T12:32:01.450Z,5.36
2022-10-25T12:33:43.798Z,5.76
2022-10-25T12:35:06.886Z,5.67
2022-10-25T12:36:38.074Z,6.09
2022-10-25T12:39:24.297Z,5.68
2022-10-25T12:40:46.176Z,4.97
2022-10-25T12:42:15.931Z,4.71
2022-10-25T12:45:28.360Z,5.33
2022-10-25T12:47:11.597Z,4.78
2022-10-25T12:48:56.343Z,4.32
2022-10-25T12:50:24.419Z,4.55
2022-10-25T12:51:49.667Z,4.78
2022-10-25T12:53:26.365Z,4.69
2022-10-25T12:54:57.078Z,4.68
2022-10-25T12:56:26.935Z,4.46
2022-10-25T12:57:58.201Z,4.57
2022-10-25T12:59:50.034Z,4.09
2022-10-25T13:01:33.165Z,4.22
2022-10-25T13:03:01.376Z,4.38
2022-10-25T13:06:18.455Z,4.27
2022-10-25T13:07:40.021Z,4.61
2022-10-25T13:10:33.229Z,3.85
2022-10-25T13:12:03.934Z,4.53
2022-10-25T13:13:27.655Z,4.67
2022-10-25T13:14:51.262Z,4.57
2022-10-25T13:16:15.670Z,4.51
2022-10-25T13:17:43.626Z,4.71
2022-10-25T13:19:25.915Z,4.99
2022-10-25T13:20:45.794Z,4.52
2022-10-25T13:22:32.565Z,4.97
2022-10-25T13:23:59.536Z,4.65
2022-10-25T13:25:33.758Z,5.21
2022-10-25T13:27:16.325Z,4.88
2022-10-25T13:28:49.875Z,4.73
2022-10-25T13:30:24.118Z,4.89
2022-10-25T13:31:46.115Z,4.88
2022-10-25T13:33:19.758Z,4.71
2022-10-25T13:34:41.216Z,4.61
2022-10-25T13:36:03.042Z,4.48
2022-10-25T13:37:33.886Z,4.43
2022-10-25T13:39:04.282Z,3.98
2022-10-25T13:41:44.083Z,4.50
2022-10-25T13:43:17.441Z,4.33
2022-10-25T13:44:54.686Z,4.24
2022-10-25T13:46:17.127Z,4.24
2022-10-25T13:47:43.190Z,4.57
2022-10-25T13:49:26.218Z,4.04
2022-10-25T13:52:06.225Z,3.24
2022-10-25T13:53:50.565Z,4.38
2022-10-25T13:55:16.508Z,4.17
2022-10-25T13:57:57.122Z,6.39
2022-10-25T13:59:35.940Z,5.15
2022-10-25T14:01:19.501Z,4.73
2022-10-25T14:03:05.013Z,4.54
2022-10-25T14:04:36.544Z,4.45
2022-10-25T14:06:03.948Z,4.74
2022-10-25T14:07:45.922Z,4.22
2022-10-25T14:09:30.915Z,5.02
2022-10-25T14:11:03.023Z,5.03
2022-10-25T14:12:24.468Z,4.35
2022-10-25T14:14:06.847Z,4.83
2022-10-25T14:17:20.165Z,4.49
2022-10-25T14:18:41.951Z,4.60
2022-10-25T14:20:26.610Z,4.81
2022-10-25T14:21:49.526Z,4.66
2022-10-25T14:23:19.769Z,4.25
2022-10-25T14:24:42.368Z,4.91
2022-10-25T14:26:08.925Z,3.67
2022-10-25T14:27:34.993Z,4.75
2022-10-25T14:29:14.204Z,4.56
2022-10-25T14:30:43.173Z,4.82
2022-10-25T14:32:09.019Z,5.34
2022-10-25T14:33:54.686Z,4.32
2022-10-25T14:35:17.193Z,4.80
2022-10-25T14:36:38.711Z,5.08
2022-10-25T14:38:03.306Z,4.76
2022-10-25T14:39:26.930Z,5.22
2022-10-25T14:40:59.645Z,5.46
2022-10-25T14:42:20.826Z,5.51
2022-10-25T14:43:42.446Z,5.09
2022-10-25T14:45:07.518Z,5.36
2022-10-25T14:46:29.131Z,5.33
2022-10-25T14:47:51.611Z,4.91
2022-10-25T14:49:12.682Z,4.57
2022-10-25T14:50:34.128Z,5.15
2022-10-25T14:52:00.977Z,5.18
2022-10-25T14:53:22.783Z,5.17
2022-10-25T14:54:45.276Z,4.66
2022-10-25T14:56:06.832Z,4.99
2022-10-25T14:57:28.230Z,4.85
2022-10-25T14:58:50.592Z,4.86
2022-10-25T15:00:21.012Z,4.88
2022-10-25T15:03:05.423Z,4.56
2022-10-25T15:04:35.218Z,4.67
2022-10-25T15:05:57.376Z,5.26
2022-10-25T15:07:24.613Z,4.63
2022-10-25T15:08:51.492Z,4.93
2022-10-25T15:10:42.198Z,4.83
2022-10-25T15:13:40.221Z,4.65
2022-10-25T15:16:41.197Z,4.62
2022-10-25T15:18:03.020Z,5.24
2022-10-25T15:19:24.502Z,5.13
2022-10-25T15:21:05.567Z,4.76
2022-10-25T15:22:33.418Z,5.74
2022-10-25T15:24:15.357Z,5.19
2022-10-25T15:25:38.070Z,4.86
2022-10-25T15:27:01.674Z,4.40
2022-10-25T15:28:22.905Z,4.54
2022-10-25T15:29:49.445Z,4.51
2022-10-25T15:31:11.418Z,4.13
2022-10-25T15:32:32.476Z,4.84
2022-10-25T15:34:01.867Z,4.67
2022-10-25T15:35:23.954Z,4.46
2022-10-25T15:36:46.308Z,3.19
2022-10-25T15:39:30.953Z,4.14
2022-10-25T15:40:52.210Z,4.43
2022-10-25T15:42:15.307Z,3.89
2022-10-25T15:43:36.704Z,4.32
2022-10-25T15:44:57.759Z,5.33
2022-10-25T15:46:28.573Z,4.49
2022-10-25T15:47:49.606Z,4.24
2022-10-25T15:49:11.299Z,4.33
2022-10-25T15:50:32.278Z,4.56
2022-10-25T15:51:53.551Z,3.98
2022-10-25T15:53:15.860Z,3.78
2022-10-25T15:54:40.793Z,3.59
2022-10-25T15:56:01.789Z,4.24
2022-10-25T15:57:23.524Z,4.24
2022-10-25T15:58:44.965Z,4.09
2022-10-25T16:00:08.516Z,4.08
2022-10-25T16:01:29.954Z,3.76
2022-10-25T16:02:51.304Z,3.97
2022-10-25T16:05:33.535Z,4.03
2022-10-25T16:06:55.017Z,4.19
2022-10-25T16:08:16.578Z,3.97
2022-10-25T16:09:38.984Z,6.21
2022-10-25T16:11:00.960Z,4.55
2022-10-25T16:12:28.901Z,3.97
2022-10-25T16:13:51.185Z,4.35
2022-10-25T16:15:15.087Z,4.20
2022-10-25T16:16:40.287Z,4.17
2022-10-25T16:17:59.351Z,4.34
2022-10-25T16:19:20.815Z,4.46
2022-10-25T16:20:42.327Z,4.18
2022-10-25T16:22:04.952Z,4.01
2022-10-25T16:23:26.632Z,4.61
2022-10-25T16:24:47.606Z,4.17
2022-10-25T16:26:21.651Z,3.94
2022-10-25T16:27:42.875Z,4.37
2022-10-25T16:29:04.734Z,4.02
2022-10-25T16:30:30.654Z,3.72
2022-10-25T16:31:53.452Z,3.86
2022-10-25T16:33:15.931Z,4.07
2022-10-25T16:34:36.975Z,3.91
2022-10-25T16:35:58.647Z,3.74
2022-10-25T16:37:19.880Z,3.87
2022-10-25T16:38:41.574Z,3.65
2022-10-25T16:40:06.407Z,3.99
2022-10-25T16:41:28.238Z,3.91
2022-10-25T16:42:49.731Z,3.93
2022-10-25T16:44:12.115Z,2.73
2022-10-25T16:45:35.840Z,3.45
2022-10-25T16:46:57.368Z,3.84
2022-10-25T16:48:18.644Z,4.13
2022-10-25T16:49:39.759Z,3.88
2022-10-25T16:51:01.064Z,4.23
2022-10-25T16:52:22.331Z,4.08
2022-10-25T16:53:45.181Z,4.02
2022-10-25T16:55:06.824Z,3.91
2022-10-25T16:56:28.066Z,3.81
2022-10-25T16:57:49.792Z,3.71
2022-10-25T16:59:11.059Z,3.92
2022-10-25T17:00:32.430Z,4.06
2022-10-25T17:01:54.354Z,3.76
2022-10-25T17:03:15.925Z,2.37
2022-10-25T17:04:37.386Z,4.00
2022-10-25T17:06:00.364Z,3.98
2022-10-25T17:07:22.092Z,3.88
2022-10-25T17:08:43.733Z,3.84
2022-10-25T17:10:05.390Z,3.73
2022-10-25T17:11:27.211Z,3.68
2022-10-25T17:12:55.988Z,3.81
2022-10-25T17:14:17.322Z,3.54
2022-10-25T17:15:38.799Z,3.90
2022-10-25T17:17:03.107Z,3.83
2022-10-25T17:19:44.321Z,4.24
2022-10-25T17:21:13.662Z,4.11
2022-10-25T17:22:36.517Z,4.20
2022-10-25T17:23:57.514Z,3.89
2022-10-25T17:26:31.554Z,4.13
2022-10-25T17:27:53.086Z,4.09
2022-10-25T17:29:15.195Z,4.16
2022-10-25T17:30:39.925Z,4.15
2022-10-25T17:32:01.363Z,4.39
2022-10-25T17:33:22.534Z,4.23
2022-10-25T17:34:43.806Z,4.07
2022-10-25T17:37:21.190Z,3.76
2022-10-25T17:38:42.872Z,3.92
2022-10-25T17:40:05.627Z,4.40
2022-10-25T17:41:26.973Z,3.83
2022-10-25T17:42:48.533Z,3.53
2022-10-25T17:44:10.297Z,3.64
2022-10-25T17:45:31.375Z,3.44
2022-10-25T17:46:54.340Z,3.67
2022-10-25T17:48:16.897Z,3.64
2022-10-25T17:49:38.687Z,3.69
2022-10-25T17:51:01.507Z,3.77
2022-10-25T17:53:46.145Z,3.85
2022-10-25T17:55:09.894Z,3.60
2022-10-25T17:57:52.803Z,3.77
2022-10-25T17:59:14.330Z,3.43
2022-10-25T18:00:35.594Z,3.23
2022-10-25T18:01:56.920Z,3.61
2022-10-25T18:03:18.838Z,3.44
2022-10-25T18:04:53.680Z,3.45
2022-10-25T18:07:14.301Z,4.43
2022-10-25T18:08:36.176Z,3.69
2022-10-25T18:09:57.460Z,3.69
2022-10-25T18:11:19.672Z,4.04
2022-10-25T18:12:41.593Z,4.08
2022-10-25T18:14:03.088Z,3.23
2022-10-25T18:15:24.613Z,4.04
2022-10-25T18:16:45.758Z,3.98
2022-10-25T18:18:07.080Z,3.76
2022-10-25T18:19:28.345Z,4.01
2022-10-25T18:20:51.520Z,4.19
2022-10-25T18:22:13.379Z,3.98
2022-10-25T18:23:34.941Z,4.19
2022-10-25T18:24:56.377Z,4.04
2022-10-25T18:26:18.672Z,3.89
2022-10-25T18:27:40.100Z,3.93
2022-10-25T18:29:01.619Z,3.81
2022-10-25T18:30:26.101Z,3.62
2022-10-25T18:31:47.670Z,4.26
2022-10-25T18:33:08.880Z,3.86
2022-10-25T18:34:30.476Z,3.86
2022-10-25T18:37:11.427Z,3.99
2022-10-25T18:38:33.197Z,4.23
2022-10-25T18:39:54.336Z,4.13
2022-10-25T18:41:18.431Z,4.07
2022-10-25T18:42:39.904Z,3.97
2022-10-25T18:44:01.548Z,4.47
2022-10-25T18:46:47.089Z,6.01
2022-10-25T18:48:08.593Z,4.89
2022-10-25T18:49:30.205Z,4.94
2022-10-25T18:50:51.659Z,4.44
2022-10-25T18:52:13.201Z,4.67
2022-10-25T18:53:34.710Z,4.29
2022-10-25T18:54:56.313Z,4.72
2022-10-25T18:56:21.253Z,4.47
2022-10-25T18:57:41.824Z,4.33
2022-10-25T18:59:03.202Z,4.30
2022-10-25T19:00:25.592Z,4.86
2022-10-25T19:01:47.053Z,4.78
2022-10-25T19:03:10.050Z,5.53
2022-10-25T19:04:31.334Z,5.03
2022-10-25T19:05:52.352Z,4.72
2022-10-25T19:07:13.491Z,4.47
2022-10-25T19:08:35.049Z,4.88
2022-10-25T19:09:56.129Z,4.61
2022-10-25T19:11:18.107Z,4.97
2022-10-25T19:12:39.071Z,4.81
2022-10-25T19:14:00.670Z,5.00
2022-10-25T19:15:21.872Z,5.38
2022-10-25T19:16:43.290Z,5.36
2022-10-25T19:18:04.972Z,5.04
2022-10-25T19:19:26.171Z,5.19
2022-10-25T19:20:47.230Z,4.74
2022-10-25T19:22:08.358Z,4.82
2022-10-25T19:23:29.956Z,4.79
2022-10-25T19:24:51.417Z,5.21
2022-10-25T19:26:15.658Z,4.92
2022-10-25T19:27:36.593Z,5.48
2022-10-25T19:28:58.532Z,5.16
2022-10-25T19:30:19.860Z,4.92
2022-10-25T19:31:40.993Z,4.73
2022-10-25T19:33:02.305Z,4.92
2022-10-25T19:34:23.666Z,4.81
2022-10-25T19:35:45.381Z,4.80
2022-10-25T19:37:06.503Z,4.79
2022-10-25T19:38:27.811Z,5.07
2022-10-25T19:39:49.033Z,4.79
2022-10-25T19:41:12.917Z,5.30
2022-10-25T19:42:33.917Z,5.32
2022-10-25T19:43:56.600Z,5.12
2022-10-25T19:45:17.850Z,5.29
2022-10-25T19:46:40.884Z,5.17
2022-10-25T19:48:02.102Z,5.07
2022-10-25T19:49:24.305Z,5.04
2022-10-25T19:50:45.333Z,5.28
2022-10-25T19:52:06.531Z,4.59
2022-10-25T19:53:27.728Z,5.34
2022-10-25T19:54:48.933Z,5.16